sensor_id;sensor_type;location;lat;lon;timestamp;temperature;humidity
14475;DHT22;7323;50.848;4.334;2023-03-11T00:00:38;3.30;99.90
14475;DHT22;7323;50.848;4.334;2023-03-11T00:03:06;3.10;99.90
14475;DHT22;7323;50.848;4.334;2023-03-11T00:05:38;3.00;99.90
14475;DHT22;7323;50.848;4.334;2023-03-11T00:08:05;3.00;99.90
14475;DHT22;7323;50.848;4.334;2023-03-11T00:10:37;3.00;99.90
14475;DHT22;7323;50.848;4.334;2023-03-11T00:13:04;3.10;99.90
14475;DHT22;7323;50.848;4.334;2023-03-11T00:15:41;2.90;99.90
14475;DHT22;7323;50.848;4.334;2023-03-11T00:18:13;2.90;99.90
14475;DHT22;7323;50.848;4.334;2023-03-11T00:20:42;3.10;99.90
14475;DHT22;7323;50.848;4.334;2023-03-11T00:23:10;3.00;99.90
14475;DHT22;7323;50.848;4.334;2023-03-11T00:25:38;3.00;99.90
14475;DHT22;7323;50.848;4.334;2023-03-11T00:28:05;3.00;99.90
14475;DHT22;7323;50.848;4.334;2023-03-11T00:30:36;3.00;99.90
14475;DHT22;7323;50.848;4.334;2023-03-11T00:33:02;3.00;99.90
14475;DHT22;7323;50.848;4.334;2023-03-11T00:35:31;3.00;99.90
14475;DHT22;7323;50.848;4.334;2023-03-11T00:37:59;2.90;99.90
14475;DHT22;7323;50.848;4.334;2023-03-11T00:40:27;2.90;99.90
14475;DHT22;7323;50.848;4.334;2023-03-11T00:42:54;2.80;99.90
14475;DHT22;7323;50.848;4.334;2023-03-11T00:45:20;2.80;99.90
14475;DHT22;7323;50.848;4.334;2023-03-11T00:47:46;2.70;99.90
14475;DHT22;7323;50.848;4.334;2023-03-11T00:50:18;2.70;99.90
14475;DHT22;7323;50.848;4.334;2023-03-11T00:52:45;2.90;99.90
14475;DHT22;7323;50.848;4.334;2023-03-11T00:55:14;2.90;99.90
14475;DHT22;7323;50.848;4.334;2023-03-11T00:57:41;2.90;99.90
14475;DHT22;7323;50.848;4.334;2023-03-11T01:00:07;2.90;99.90
14475;DHT22;7323;50.848;4.334;2023-03-11T01:02:37;2.90;99.90
14475;DHT22;7323;50.848;4.334;2023-03-11T01:05:04;3.00;99.90
14475;DHT22;7323;50.848;4.334;2023-03-11T01:07:30;3.00;99.90
14475;DHT22;7323;50.848;4.334;2023-03-11T01:09:57;2.80;99.90
14475;DHT22;7323;50.848;4.334;2023-03-11T01:12:22;2.70;99.90
14475;DHT22;7323;50.848;4.334;2023-03-11T01:14:48;2.70;99.90
14475;DHT22;7323;50.848;4.334;2023-03-11T01:17:14;2.70;99.90
14475;DHT22;7323;50.848;4.334;2023-03-11T01:19:40;2.70;99.90
14475;DHT22;7323;50.848;4.334;2023-03-11T01:22:06;2.80;99.90
14475;DHT22;7323;50.848;4.334;2023-03-11T01:24:31;2.80;99.90
14475;DHT22;7323;50.848;4.334;2023-03-11T01:26:59;2.80;99.90
14475;DHT22;7323;50.848;4.334;2023-03-11T01:29:25;2.60;99.90
14475;DHT22;7323;50.848;4.334;2023-03-11T01:31:50;2.60;99.90
14475;DHT22;7323;50.848;4.334;2023-03-11T01:34:16;2.60;99.90
14475;DHT22;7323;50.848;4.334;2023-03-11T01:36:42;2.50;99.90
14475;DHT22;7323;50.848;4.334;2023-03-11T01:39:07;2.60;99.90
14475;DHT22;7323;50.848;4.334;2023-03-11T01:41:34;2.60;99.90
14475;DHT22;7323;50.848;4.334;2023-03-11T01:44:00;2.70;99.90
14475;DHT22;7323;50.848;4.334;2023-03-11T01:49:19;2.70;99.90
14475;DHT22;7323;50.848;4.334;2023-03-11T01:51:48;2.90;99.90
14475;DHT22;7323;50.848;4.334;2023-03-11T01:54:23;2.80;99.90
14475;DHT22;7323;50.848;4.334;2023-03-11T01:56:50;3.00;99.90
14475;DHT22;7323;50.848;4.334;2023-03-11T01:59:27;3.00;99.90
14475;DHT22;7323;50.848;4.334;2023-03-11T02:02:17;2.90;99.90
14475;DHT22;7323;50.848;4.334;2023-03-11T02:04:44;2.90;99.90
14475;DHT22;7323;50.848;4.334;2023-03-11T02:07:11;2.80;99.90
14475;DHT22;7323;50.848;4.334;2023-03-11T02:09:38;2.60;99.90
14475;DHT22;7323;50.848;4.334;2023-03-11T02:12:05;2.60;99.90
14475;DHT22;7323;50.848;4.334;2023-03-11T02:14:32;2.50;99.90
14475;DHT22;7323;50.848;4.334;2023-03-11T02:17:02;2.40;99.90
14475;DHT22;7323;50.848;4.334;2023-03-11T02:23:16;2.50;99.90
14475;DHT22;7323;50.848;4.334;2023-03-11T02:26:03;2.60;99.90
14475;DHT22;7323;50.848;4.334;2023-03-11T02:28:31;2.70;99.90
14475;DHT22;7323;50.848;4.334;2023-03-11T02:30:57;2.90;99.90
14475;DHT22;7323;50.848;4.334;2023-03-11T02:33:27;2.80;99.90
14475;DHT22;7323;50.848;4.334;2023-03-11T02:35:55;2.90;99.90
14475;DHT22;7323;50.848;4.334;2023-03-11T02:38:23;2.90;99.90
14475;DHT22;7323;50.848;4.334;2023-03-11T02:41:02;2.90;99.90
14475;DHT22;7323;50.848;4.334;2023-03-11T02:43:42;2.90;99.90
14475;DHT22;7323;50.848;4.334;2023-03-11T02:46:09;2.80;99.90
14475;DHT22;7323;50.848;4.334;2023-03-11T02:48:37;2.60;99.90
14475;DHT22;7323;50.848;4.334;2023-03-11T02:51:03;2.40;99.90
14475;DHT22;7323;50.848;4.334;2023-03-11T02:53:35;2.60;99.90
14475;DHT22;7323;50.848;4.334;2023-03-11T02:56:02;2.60;99.90
14475;DHT22;7323;50.848;4.334;2023-03-11T02:58:27;2.50;99.90
14475;DHT22;7323;50.848;4.334;2023-03-11T03:00:56;2.40;99.90
14475;DHT22;7323;50.848;4.334;2023-03-11T03:03:36;2.30;99.90
14475;DHT22;7323;50.848;4.334;2023-03-11T03:06:04;2.60;99.90
14475;DHT22;7323;50.848;4.334;2023-03-11T03:08:40;2.70;99.90
14475;DHT22;7323;50.848;4.334;2023-03-11T03:11:08;2.60;99.90
14475;DHT22;7323;50.848;4.334;2023-03-11T03:13:36;2.70;99.90
14475;DHT22;7323;50.848;4.334;2023-03-11T03:16:02;2.60;99.90
14475;DHT22;7323;50.848;4.334;2023-03-11T03:18:28;2.70;99.90
14475;DHT22;7323;50.848;4.334;2023-03-11T03:20:54;2.70;99.90
14475;DHT22;7323;50.848;4.334;2023-03-11T03:23:20;2.60;99.90
14475;DHT22;7323;50.848;4.334;2023-03-11T03:25:47;2.50;99.90
14475;DHT22;7323;50.848;4.334;2023-03-11T03:28:13;2.60;99.90
14475;DHT22;7323;50.848;4.334;2023-03-11T03:30:40;2.60;99.90
14475;DHT22;7323;50.848;4.334;2023-03-11T03:33:09;2.70;99.90
14475;DHT22;7323;50.848;4.334;2023-03-11T03:35:35;2.80;99.90
14475;DHT22;7323;50.848;4.334;2023-03-11T03:38:05;2.90;99.90
14475;DHT22;7323;50.848;4.334;2023-03-11T03:40:33;3.10;99.90
14475;DHT22;7323;50.848;4.334;2023-03-11T03:42:59;3.20;99.90
14475;DHT22;7323;50.848;4.334;2023-03-11T03:45:26;3.00;99.90
14475;DHT22;7323;50.848;4.334;2023-03-11T03:47:52;2.90;99.90
14475;DHT22;7323;50.848;4.334;2023-03-11T03:50:18;2.70;99.90
14475;DHT22;7323;50.848;4.334;2023-03-11T03:52:43;2.60;99.90
14475;DHT22;7323;50.848;4.334;2023-03-11T03:55:09;2.60;99.90
14475;DHT22;7323;50.848;4.334;2023-03-11T03:57:35;2.50;99.90
14475;DHT22;7323;50.848;4.334;2023-03-11T04:00:03;2.50;99.90
14475;DHT22;7323;50.848;4.334;2023-03-11T04:02:30;2.60;99.90
14475;DHT22;7323;50.848;4.334;2023-03-11T04:04:56;2.70;99.90
14475;DHT22;7323;50.848;4.334;2023-03-11T04:07:22;2.60;99.90
14475;DHT22;7323;50.848;4.334;2023-03-11T04:09:48;2.60;99.90
14475;DHT22;7323;50.848;4.334;2023-03-11T04:12:15;2.60;99.90
14475;DHT22;7323;50.848;4.334;2023-03-11T04:14:43;2.60;99.90
14475;DHT22;7323;50.848;4.334;2023-03-11T04:17:12;2.60;99.90
14475;DHT22;7323;50.848;4.334;2023-03-11T04:19:38;2.70;99.90
14475;DHT22;7323;50.848;4.334;2023-03-11T04:22:04;2.80;99.90
14475;DHT22;7323;50.848;4.334;2023-03-11T04:24:32;2.80;99.90
14475;DHT22;7323;50.848;4.334;2023-03-11T04:26:58;2.90;99.90
14475;DHT22;7323;50.848;4.334;2023-03-11T04:29:24;3.00;99.90
14475;DHT22;7323;50.848;4.334;2023-03-11T04:31:50;2.90;99.90
14475;DHT22;7323;50.848;4.334;2023-03-11T04:34:16;3.00;99.90
14475;DHT22;7323;50.848;4.334;2023-03-11T04:36:42;2.90;99.90
14475;DHT22;7323;50.848;4.334;2023-03-11T04:39:08;2.70;99.90
14475;DHT22;7323;50.848;4.334;2023-03-11T04:41:34;2.70;99.90
14475;DHT22;7323;50.848;4.334;2023-03-11T04:43:59;2.60;99.90
14475;DHT22;7323;50.848;4.334;2023-03-11T04:46:25;2.60;99.90
14475;DHT22;7323;50.848;4.334;2023-03-11T04:48:51;2.60;99.90
14475;DHT22;7323;50.848;4.334;2023-03-11T04:51:17;2.70;99.90
14475;DHT22;7323;50.848;4.334;2023-03-11T04:53:45;2.80;99.90
14475;DHT22;7323;50.848;4.334;2023-03-11T04:56:10;3.00;99.90
14475;DHT22;7323;50.848;4.334;2023-03-11T04:58:36;2.80;99.90
14475;DHT22;7323;50.848;4.334;2023-03-11T05:01:01;2.60;99.90
14475;DHT22;7323;50.848;4.334;2023-03-11T05:03:27;2.40;99.90
14475;DHT22;7323;50.848;4.334;2023-03-11T05:05:53;2.40;99.90
14475;DHT22;7323;50.848;4.334;2023-03-11T05:08:22;2.40;99.90
14475;DHT22;7323;50.848;4.334;2023-03-11T05:10:48;2.50;99.90
14475;DHT22;7323;50.848;4.334;2023-03-11T05:13:15;2.40;99.90
14475;DHT22;7323;50.848;4.334;2023-03-11T05:15:41;2.50;99.90
14475;DHT22;7323;50.848;4.334;2023-03-11T05:18:08;2.40;99.90
14475;DHT22;7323;50.848;4.334;2023-03-11T05:20:34;2.40;99.90
14475;DHT22;7323;50.848;4.334;2023-03-11T05:23:02;2.40;99.90
14475;DHT22;7323;50.848;4.334;2023-03-11T05:25:28;2.40;99.90
14475;DHT22;7323;50.848;4.334;2023-03-11T05:27:53;2.40;99.90
14475;DHT22;7323;50.848;4.334;2023-03-11T05:30:20;2.40;99.90
14475;DHT22;7323;50.848;4.334;2023-03-11T05:32:45;2.50;99.90
14475;DHT22;7323;50.848;4.334;2023-03-11T05:35:12;2.40;99.90
14475;DHT22;7323;50.848;4.334;2023-03-11T05:37:38;2.30;99.90
14475;DHT22;7323;50.848;4.334;2023-03-11T05:40:05;2.40;99.90
14475;DHT22;7323;50.848;4.334;2023-03-11T05:42:33;2.40;99.90
14475;DHT22;7323;50.848;4.334;2023-03-11T05:45:02;2.40;99.90
14475;DHT22;7323;50.848;4.334;2023-03-11T05:47:31;2.40;99.90
14475;DHT22;7323;50.848;4.334;2023-03-11T05:50:00;2.50;99.90
14475;DHT22;7323;50.848;4.334;2023-03-11T05:52:30;2.40;99.90
14475;DHT22;7323;50.848;4.334;2023-03-11T05:55:00;2.40;99.90
14475;DHT22;7323;50.848;4.334;2023-03-11T05:57:26;2.50;99.90
14475;DHT22;7323;50.848;4.334;2023-03-11T05:59:51;2.80;99.90
14475;DHT22;7323;50.848;4.334;2023-03-11T06:02:17;2.70;99.90
14475;DHT22;7323;50.848;4.334;2023-03-11T06:04:43;2.70;99.90
14475;DHT22;7323;50.848;4.334;2023-03-11T06:07:08;2.80;99.90
14475;DHT22;7323;50.848;4.334;2023-03-11T06:09:36;2.80;99.90
14475;DHT22;7323;50.848;4.334;2023-03-11T06:12:03;2.70;99.90
14475;DHT22;7323;50.848;4.334;2023-03-11T06:14:30;2.80;99.90
14475;DHT22;7323;50.848;4.334;2023-03-11T06:16:57;2.70;99.90
14475;DHT22;7323;50.848;4.334;2023-03-11T06:19:24;2.90;99.90
14475;DHT22;7323;50.848;4.334;2023-03-11T06:21:50;2.70;99.90
14475;DHT22;7323;50.848;4.334;2023-03-11T06:24:17;2.80;99.90
14475;DHT22;7323;50.848;4.334;2023-03-11T06:26:42;2.70;99.90
14475;DHT22;7323;50.848;4.334;2023-03-11T06:29:12;2.70;99.90
14475;DHT22;7323;50.848;4.334;2023-03-11T06:31:39;2.70;99.90
14475;DHT22;7323;50.848;4.334;2023-03-11T06:34:05;2.60;99.90
14475;DHT22;7323;50.848;4.334;2023-03-11T06:36:31;2.60;99.90
14475;DHT22;7323;50.848;4.334;2023-03-11T06:38:57;2.70;99.90
14475;DHT22;7323;50.848;4.334;2023-03-11T06:41:25;2.80;99.90
14475;DHT22;7323;50.848;4.334;2023-03-11T06:43:50;2.90;99.90
14475;DHT22;7323;50.848;4.334;2023-03-11T06:46:20;3.00;99.90
14475;DHT22;7323;50.848;4.334;2023-03-11T06:48:48;2.90;99.90
14475;DHT22;7323;50.848;4.334;2023-03-11T06:51:17;3.00;99.90
14475;DHT22;7323;50.848;4.334;2023-03-11T06:53:48;3.10;99.90
14475;DHT22;7323;50.848;4.334;2023-03-11T06:56:16;2.90;99.90
14475;DHT22;7323;50.848;4.334;2023-03-11T06:58:42;3.00;99.90
14475;DHT22;7323;50.848;4.334;2023-03-11T07:01:14;3.10;99.90
14475;DHT22;7323;50.848;4.334;2023-03-11T07:03:41;3.10;99.90
14475;DHT22;7323;50.848;4.334;2023-03-11T07:06:15;3.40;99.90
14475;DHT22;7323;50.848;4.334;2023-03-11T07:08:42;3.40;99.90
14475;DHT22;7323;50.848;4.334;2023-03-11T07:11:11;3.40;99.90
14475;DHT22;7323;50.848;4.334;2023-03-11T07:13:40;3.50;99.90
14475;DHT22;7323;50.848;4.334;2023-03-11T07:16:12;3.70;99.90
14475;DHT22;7323;50.848;4.334;2023-03-11T07:18:43;3.80;99.90
14475;DHT22;7323;50.848;4.334;2023-03-11T07:21:13;3.90;99.90
14475;DHT22;7323;50.848;4.334;2023-03-11T07:23:39;3.90;99.90
14475;DHT22;7323;50.848;4.334;2023-03-11T07:26:08;3.80;99.90
14475;DHT22;7323;50.848;4.334;2023-03-11T07:28:34;3.90;99.90
14475;DHT22;7323;50.848;4.334;2023-03-11T07:31:06;4.00;99.90
14475;DHT22;7323;50.848;4.334;2023-03-11T07:33:32;3.90;99.90
14475;DHT22;7323;50.848;4.334;2023-03-11T07:35:58;4.00;99.90
14475;DHT22;7323;50.848;4.334;2023-03-11T07:38:27;4.00;99.90
14475;DHT22;7323;50.848;4.334;2023-03-11T07:40:59;4.20;99.90
14475;DHT22;7323;50.848;4.334;2023-03-11T07:43:27;4.40;99.90
14475;DHT22;7323;50.848;4.334;2023-03-11T07:46:04;4.40;99.90
14475;DHT22;7323;50.848;4.334;2023-03-11T07:48:31;4.60;99.90
14475;DHT22;7323;50.848;4.334;2023-03-11T07:51:39;4.70;99.90
14475;DHT22;7323;50.848;4.334;2023-03-11T07:53:59;4.60;99.90
14475;DHT22;7323;50.848;4.334;2023-03-11T07:56:29;4.60;99.90
14475;DHT22;7323;50.848;4.334;2023-03-11T07:58:56;4.60;99.90
14475;DHT22;7323;50.848;4.334;2023-03-11T08:01:24;4.70;99.90
14475;DHT22;7323;50.848;4.334;2023-03-11T08:03:52;4.60;99.90
14475;DHT22;7323;50.848;4.334;2023-03-11T08:06:28;4.70;99.90
14475;DHT22;7323;50.848;4.334;2023-03-11T08:08:59;4.70;99.90
14475;DHT22;7323;50.848;4.334;2023-03-11T08:11:26;4.70;99.90
14475;DHT22;7323;50.848;4.334;2023-03-11T08:13:55;4.70;99.90
14475;DHT22;7323;50.848;4.334;2023-03-11T08:16:24;4.70;99.90
14475;DHT22;7323;50.848;4.334;2023-03-11T08:18:51;4.80;99.90
14475;DHT22;7323;50.848;4.334;2023-03-11T08:21:20;5.00;99.90
14475;DHT22;7323;50.848;4.334;2023-03-11T08:23:48;4.90;99.90
14475;DHT22;7323;50.848;4.334;2023-03-11T08:26:16;5.20;99.90
14475;DHT22;7323;50.848;4.334;2023-03-11T08:28:51;5.20;99.90
14475;DHT22;7323;50.848;4.334;2023-03-11T08:31:20;5.40;99.90
14475;DHT22;7323;50.848;4.334;2023-03-11T08:33:48;5.70;99.90
14475;DHT22;7323;50.848;4.334;2023-03-11T08:36:17;5.60;99.90
14475;DHT22;7323;50.848;4.334;2023-03-11T08:38:45;5.70;99.90
14475;DHT22;7323;50.848;4.334;2023-03-11T08:41:23;5.90;99.90
14475;DHT22;7323;50.848;4.334;2023-03-11T08:43:49;6.10;99.90
14475;DHT22;7323;50.848;4.334;2023-03-11T08:46:31;6.10;99.90
14475;DHT22;7323;50.848;4.334;2023-03-11T08:48:59;6.30;99.90
14475;DHT22;7323;50.848;4.334;2023-03-11T08:51:25;6.40;99.90
14475;DHT22;7323;50.848;4.334;2023-03-11T08:53:51;6.50;99.90
14475;DHT22;7323;50.848;4.334;2023-03-11T08:56:18;6.40;99.90
14475;DHT22;7323;50.848;4.334;2023-03-11T08:58:45;6.40;99.90
14475;DHT22;7323;50.848;4.334;2023-03-11T09:01:12;6.60;99.90
14475;DHT22;7323;50.848;4.334;2023-03-11T09:03:39;6.80;99.90
14475;DHT22;7323;50.848;4.334;2023-03-11T09:06:08;6.90;99.90
14475;DHT22;7323;50.848;4.334;2023-03-11T09:08:34;7.00;99.90
14475;DHT22;7323;50.848;4.334;2023-03-11T09:11:00;7.00;99.90
14475;DHT22;7323;50.848;4.334;2023-03-11T09:13:26;7.20;99.90
14475;DHT22;7323;50.848;4.334;2023-03-11T09:15:53;7.30;99.90
14475;DHT22;7323;50.848;4.334;2023-03-11T09:18:22;7.20;99.90
14475;DHT22;7323;50.848;4.334;2023-03-11T09:20:47;7.00;99.90
14475;DHT22;7323;50.848;4.334;2023-03-11T09:23:16;7.00;99.90
14475;DHT22;7323;50.848;4.334;2023-03-11T09:25:41;7.20;99.90
14475;DHT22;7323;50.848;4.334;2023-03-11T09:28:08;7.20;99.90
14475;DHT22;7323;50.848;4.334;2023-03-11T09:30:34;7.30;99.90
14475;DHT22;7323;50.848;4.334;2023-03-11T09:33:00;7.70;99.90
14475;DHT22;7323;50.848;4.334;2023-03-11T09:35:26;7.60;99.90
14475;DHT22;7323;50.848;4.334;2023-03-11T09:37:51;7.50;99.90
14475;DHT22;7323;50.848;4.334;2023-03-11T09:40:21;7.60;99.90
14475;DHT22;7323;50.848;4.334;2023-03-11T09:49:27;7.90;99.90
14475;DHT22;7323;50.848;4.334;2023-03-11T09:52:13;7.70;99.90
14475;DHT22;7323;50.848;4.334;2023-03-11T09:54:51;7.80;99.90
14475;DHT22;7323;50.848;4.334;2023-03-11T09:57:33;8.00;99.90
14475;DHT22;7323;50.848;4.334;2023-03-11T10:00:01;8.30;99.90
14475;DHT22;7323;50.848;4.334;2023-03-11T10:02:29;8.50;99.90
14475;DHT22;7323;50.848;4.334;2023-03-11T10:05:27;8.40;99.90
14475;DHT22;7323;50.848;4.334;2023-03-11T10:08:04;8.30;99.90
14475;DHT22;7323;50.848;4.334;2023-03-11T10:10:42;7.90;99.90
14475;DHT22;7323;50.848;4.334;2023-03-11T10:13:34;7.40;99.90
14475;DHT22;7323;50.848;4.334;2023-03-11T10:16:15;7.30;99.90
14475;DHT22;7323;50.848;4.334;2023-03-11T10:18:57;7.70;99.90
14475;DHT22;7323;50.848;4.334;2023-03-11T10:21:50;7.90;99.90
14475;DHT22;7323;50.848;4.334;2023-03-11T10:27:48;7.80;99.90
14475;DHT22;7323;50.848;4.334;2023-03-11T10:30:32;7.90;99.90
14475;DHT22;7323;50.848;4.334;2023-03-11T10:33:16;7.80;99.90
14475;DHT22;7323;50.848;4.334;2023-03-11T10:35:45;7.80;99.90
14475;DHT22;7323;50.848;4.334;2023-03-11T10:38:15;7.60;99.90
14475;DHT22;7323;50.848;4.334;2023-03-11T10:40:45;7.30;99.90
14475;DHT22;7323;50.848;4.334;2023-03-11T10:43:27;7.20;99.90
14475;DHT22;7323;50.848;4.334;2023-03-11T10:45:54;6.90;99.90
14475;DHT22;7323;50.848;4.334;2023-03-11T10:48:21;6.80;99.90
14475;DHT22;7323;50.848;4.334;2023-03-11T10:51:01;7.30;99.90
14475;DHT22;7323;50.848;4.334;2023-03-11T10:53:28;7.70;99.90
14475;DHT22;7323;50.848;4.334;2023-03-11T10:55:56;8.00;99.90
14475;DHT22;7323;50.848;4.334;2023-03-11T10:58:31;8.30;99.90
14475;DHT22;7323;50.848;4.334;2023-03-11T11:01:13;8.70;99.90
14475;DHT22;7323;50.848;4.334;2023-03-11T11:03:41;8.60;99.90
14475;DHT22;7323;50.848;4.334;2023-03-11T11:06:18;8.60;99.90
14475;DHT22;7323;50.848;4.334;2023-03-11T11:08:45;8.50;99.90
14475;DHT22;7323;50.848;4.334;2023-03-11T11:11:22;8.20;99.90
14475;DHT22;7323;50.848;4.334;2023-03-11T11:13:58;8.40;99.90
14475;DHT22;7323;50.848;4.334;2023-03-11T11:16:25;8.70;99.90
14475;DHT22;7323;50.848;4.334;2023-03-11T11:19:09;8.40;99.90
14475;DHT22;7323;50.848;4.334;2023-03-11T11:21:39;8.30;99.90
14475;DHT22;7323;50.848;4.334;2023-03-11T11:29:37;9.00;99.90
14475;DHT22;7323;50.848;4.334;2023-03-11T11:32:19;9.30;99.90
14475;DHT22;7323;50.848;4.334;2023-03-11T11:35:03;9.30;99.90
14475;DHT22;7323;50.848;4.334;2023-03-11T11:37:32;9.10;99.90
14475;DHT22;7323;50.848;4.334;2023-03-11T11:40:05;9.10;99.90
14475;DHT22;7323;50.848;4.334;2023-03-11T11:42:43;9.20;99.90
14475;DHT22;7323;50.848;4.334;2023-03-11T11:45:23;9.40;99.90
14475;DHT22;7323;50.848;4.334;2023-03-11T11:47:54;9.70;99.90
14475;DHT22;7323;50.848;4.334;2023-03-11T11:50:34;9.60;99.90
14475;DHT22;7323;50.848;4.334;2023-03-11T11:53:18;9.50;99.90
14475;DHT22;7323;50.848;4.334;2023-03-11T11:55:51;9.20;99.90
14475;DHT22;7323;50.848;4.334;2023-03-11T11:58:19;9.10;99.90
14475;DHT22;7323;50.848;4.334;2023-03-11T12:06:35;8.70;99.90
14475;DHT22;7323;50.848;4.334;2023-03-11T12:09:39;8.40;99.90
14475;DHT22;7323;50.848;4.334;2023-03-11T12:12:36;8.50;99.90
14475;DHT22;7323;50.848;4.334;2023-03-11T12:15:40;8.90;99.90
14475;DHT22;7323;50.848;4.334;2023-03-11T12:18:15;9.30;99.90
14475;DHT22;7323;50.848;4.334;2023-03-11T12:20:46;9.60;99.90
14475;DHT22;7323;50.848;4.334;2023-03-11T12:23:23;9.70;99.90
14475;DHT22;7323;50.848;4.334;2023-03-11T12:26:21;9.90;99.90
14475;DHT22;7323;50.848;4.334;2023-03-11T12:31:17;9.50;99.90
14475;DHT22;7323;50.848;4.334;2023-03-11T12:33:48;9.50;99.90
14475;DHT22;7323;50.848;4.334;2023-03-11T12:38:57;9.70;99.90
14475;DHT22;7323;50.848;4.334;2023-03-11T12:41:37;9.80;99.90
14475;DHT22;7323;50.848;4.334;2023-03-11T12:44:27;9.70;99.90
14475;DHT22;7323;50.848;4.334;2023-03-11T12:47:01;9.80;99.90
14475;DHT22;7323;50.848;4.334;2023-03-11T12:49:33;10.00;99.90
14475;DHT22;7323;50.848;4.334;2023-03-11T12:54:37;9.90;99.90
14475;DHT22;7323;50.848;4.334;2023-03-11T13:08:23;9.90;99.90
14475;DHT22;7323;50.848;4.334;2023-03-11T13:10:54;9.80;99.90
14475;DHT22;7323;50.848;4.334;2023-03-11T13:16:34;10.00;99.90
14475;DHT22;7323;50.848;4.334;2023-03-11T13:18:48;9.70;99.90
14475;DHT22;7323;50.848;4.334;2023-03-11T13:27:02;9.90;99.90
14475;DHT22;7323;50.848;4.334;2023-03-11T13:40:57;9.40;99.90
14475;DHT22;7323;50.848;4.334;2023-03-11T13:43:25;8.90;99.90
14475;DHT22;7323;50.848;4.334;2023-03-11T13:46:00;8.80;99.90
14475;DHT22;7323;50.848;4.334;2023-03-11T13:48:36;8.50;99.90
14475;DHT22;7323;50.848;4.334;2023-03-11T13:53:45;9.00;99.90
14475;DHT22;7323;50.848;4.334;2023-03-11T13:56:23;9.20;99.90
14475;DHT22;7323;50.848;4.334;2023-03-11T13:58:50;9.50;99.90
14475;DHT22;7323;50.848;4.334;2023-03-11T14:01:17;9.70;99.90
14475;DHT22;7323;50.848;4.334;2023-03-11T14:03:45;10.10;99.90
14475;DHT22;7323;50.848;4.334;2023-03-11T14:06:14;10.30;99.90
14475;DHT22;7323;50.848;4.334;2023-03-11T14:08:41;10.40;99.90
14475;DHT22;7323;50.848;4.334;2023-03-11T14:13:42;10.30;99.90
14475;DHT22;7323;50.848;4.334;2023-03-11T14:16:20;10.50;99.90
14475;DHT22;7323;50.848;4.334;2023-03-11T14:21:26;10.50;99.90
14475;DHT22;7323;50.848;4.334;2023-03-11T14:23:53;10.00;99.90
14475;DHT22;7323;50.848;4.334;2023-03-11T14:26:55;9.90;99.90
14475;DHT22;7323;50.848;4.334;2023-03-11T14:29:18;9.90;99.90
14475;DHT22;7323;50.848;4.334;2023-03-11T14:31:46;9.80;99.90
14475;DHT22;7323;50.848;4.334;2023-03-11T14:34:17;9.70;99.90
14475;DHT22;7323;50.848;4.334;2023-03-11T14:36:49;9.70;99.90
14475;DHT22;7323;50.848;4.334;2023-03-11T14:39:36;9.90;99.90
14475;DHT22;7323;50.848;4.334;2023-03-11T14:42:10;9.70;99.90
14475;DHT22;7323;50.848;4.334;2023-03-11T14:44:40;9.90;99.90
14475;DHT22;7323;50.848;4.334;2023-03-11T14:47:13;9.90;99.90
14475;DHT22;7323;50.848;4.334;2023-03-11T14:49:41;10.20;99.90
14475;DHT22;7323;50.848;4.334;2023-03-11T14:52:19;10.30;99.90
14475;DHT22;7323;50.848;4.334;2023-03-11T14:54:47;10.30;99.90
14475;DHT22;7323;50.848;4.334;2023-03-11T14:57:38;10.60;99.90
14475;DHT22;7323;50.848;4.334;2023-03-11T15:00:14;10.40;99.90
14475;DHT22;7323;50.848;4.334;2023-03-11T15:03:00;10.60;99.90
14475;DHT22;7323;50.848;4.334;2023-03-11T15:08:10;10.60;99.90
14475;DHT22;7323;50.848;4.334;2023-03-11T15:10:36;10.70;99.90
14475;DHT22;7323;50.848;4.334;2023-03-11T15:13:14;10.60;99.90
14475;DHT22;7323;50.848;4.334;2023-03-11T15:15:40;10.50;99.90
14475;DHT22;7323;50.848;4.334;2023-03-11T15:18:28;10.50;99.90
14475;DHT22;7323;50.848;4.334;2023-03-11T15:21:12;10.20;99.90
14475;DHT22;7323;50.848;4.334;2023-03-11T15:23:39;10.40;99.90
14475;DHT22;7323;50.848;4.334;2023-03-11T15:26:18;11.10;99.90
14475;DHT22;7323;50.848;4.334;2023-03-11T15:28:44;11.70;99.90
14475;DHT22;7323;50.848;4.334;2023-03-11T15:33:40;13.70;98.70
14475;DHT22;7323;50.848;4.334;2023-03-11T15:36:30;14.70;95.40
14475;DHT22;7323;50.848;4.334;2023-03-11T15:44:27;16.90;81.90
14475;DHT22;7323;50.848;4.334;2023-03-11T15:46:54;17.20;78.80
14475;DHT22;7323;50.848;4.334;2023-03-11T15:49:20;17.40;76.80
14475;DHT22;7323;50.848;4.334;2023-03-11T15:51:46;17.30;74.10
14475;DHT22;7323;50.848;4.334;2023-03-11T15:54:12;17.60;70.60
14475;DHT22;7323;50.848;4.334;2023-03-11T15:56:39;17.30;70.40
14475;DHT22;7323;50.848;4.334;2023-03-11T15:59:05;15.80;72.60
14475;DHT22;7323;50.848;4.334;2023-03-11T16:01:31;15.30;75.60
14475;DHT22;7323;50.848;4.334;2023-03-11T16:03:58;15.30;76.10
14475;DHT22;7323;50.848;4.334;2023-03-11T16:06:23;15.10;76.80
14475;DHT22;7323;50.848;4.334;2023-03-11T16:08:50;14.60;78.70
14475;DHT22;7323;50.848;4.334;2023-03-11T16:11:19;13.90;77.90
14475;DHT22;7323;50.848;4.334;2023-03-11T16:13:48;13.10;79.90
14475;DHT22;7323;50.848;4.334;2023-03-11T16:16:16;12.30;84.50
14475;DHT22;7323;50.848;4.334;2023-03-11T16:18:41;12.00;88.00
14475;DHT22;7323;50.848;4.334;2023-03-11T16:21:14;11.60;89.90
14475;DHT22;7323;50.848;4.334;2023-03-11T16:23:40;11.40;90.80
14475;DHT22;7323;50.848;4.334;2023-03-11T16:26:09;11.20;92.40
14475;DHT22;7323;50.848;4.334;2023-03-11T16:28:35;11.10;94.10
14475;DHT22;7323;50.848;4.334;2023-03-11T16:31:03;11.00;94.30
14475;DHT22;7323;50.848;4.334;2023-03-11T16:33:28;10.80;93.80
14475;DHT22;7323;50.848;4.334;2023-03-11T16:35:54;10.50;95.20
14475;DHT22;7323;50.848;4.334;2023-03-11T16:38:20;10.50;97.20
14475;DHT22;7323;50.848;4.334;2023-03-11T16:41:01;10.30;99.00
14475;DHT22;7323;50.848;4.334;2023-03-11T16:43:30;10.20;99.40
14475;DHT22;7323;50.848;4.334;2023-03-11T16:45:56;10.20;99.90
14475;DHT22;7323;50.848;4.334;2023-03-11T16:48:22;10.10;99.90
14475;DHT22;7323;50.848;4.334;2023-03-11T16:50:48;10.00;99.90
14475;DHT22;7323;50.848;4.334;2023-03-11T16:53:15;10.20;99.70
14475;DHT22;7323;50.848;4.334;2023-03-11T16:55:46;10.40;99.90
14475;DHT22;7323;50.848;4.334;2023-03-11T16:58:13;10.50;98.10
14475;DHT22;7323;50.848;4.334;2023-03-11T17:00:39;10.40;99.00
14475;DHT22;7323;50.848;4.334;2023-03-11T17:03:11;10.50;98.30
14475;DHT22;7323;50.848;4.334;2023-03-11T17:05:36;10.20;99.60
14475;DHT22;7323;50.848;4.334;2023-03-11T17:08:06;10.10;99.90
14475;DHT22;7323;50.848;4.334;2023-03-11T17:10:37;10.00;99.90
14475;DHT22;7323;50.848;4.334;2023-03-11T17:13:07;10.10;99.90
14475;DHT22;7323;50.848;4.334;2023-03-11T17:15:33;10.10;99.90
14475;DHT22;7323;50.848;4.334;2023-03-11T17:18:02;10.20;99.90
14475;DHT22;7323;50.848;4.334;2023-03-11T17:20:28;10.10;99.90
14475;DHT22;7323;50.848;4.334;2023-03-11T17:22:54;10.00;99.50
14475;DHT22;7323;50.848;4.334;2023-03-11T17:25:20;10.00;99.90
14475;DHT22;7323;50.848;4.334;2023-03-11T17:27:45;9.70;99.90
14475;DHT22;7323;50.848;4.334;2023-03-11T17:30:15;9.50;99.90
14475;DHT22;7323;50.848;4.334;2023-03-11T17:32:41;9.30;99.90
14475;DHT22;7323;50.848;4.334;2023-03-11T17:35:07;9.50;99.90
14475;DHT22;7323;50.848;4.334;2023-03-11T17:37:33;9.40;99.90
14475;DHT22;7323;50.848;4.334;2023-03-11T17:39:58;9.40;99.90
14475;DHT22;7323;50.848;4.334;2023-03-11T17:42:24;9.50;99.90